sensor_id;sensor_type;location;lat;lon;timestamp;pressure;altitude;pressure_sealevel;temperature;humidity
77086;BME280;66014;53.134;18.006;2023-06-05T00:00:57;101732.21;;;14.26;42.26
77086;BME280;66014;53.134;18.006;2023-06-05T00:03:43;101730.71;;;14.25;42.21
77086;BME280;66014;53.134;18.006;2023-06-05T00:06:10;101735.96;;;14.24;42.32
77086;BME280;66014;53.134;18.006;2023-06-05T00:08:36;101734.10;;;14.22;42.42
77086;BME280;66014;53.134;18.006;2023-06-05T00:11:01;101733.70;;;14.21;42.31
77086;BME280;66014;53.134;18.006;2023-06-05T00:13:28;101731.02;;;14.19;42.37
77086;BME280;66014;53.134;18.006;2023-06-05T00:15:53;101729.77;;;14.17;42.64
77086;BME280;66014;53.134;18.006;2023-06-05T00:18:20;101731.71;;;14.16;42.57
77086;BME280;66014;53.134;18.006;2023-06-05T00:20:46;101731.65;;;14.15;42.41
77086;BME280;66014;53.134;18.006;2023-06-05T00:23:12;101730.66;;;14.13;42.62
77086;BME280;66014;53.134;18.006;2023-06-05T00:25:38;101728.69;;;14.10;42.64
77086;BME280;66014;53.134;18.006;2023-06-05T00:28:05;101730.47;;;14.07;42.62
77086;BME280;66014;53.134;18.006;2023-06-05T00:30:31;101731.94;;;14.03;42.58
77086;BME280;66014;53.134;18.006;2023-06-05T00:32:57;101735.80;;;13.99;42.64
77086;BME280;66014;53.134;18.006;2023-06-05T00:35:22;101733.64;;;13.96;43.19
77086;BME280;66014;53.134;18.006;2023-06-05T00:37:48;101733.77;;;13.93;43.12
77086;BME280;66014;53.134;18.006;2023-06-05T00:40:14;101733.52;;;13.91;43.13
77086;BME280;66014;53.134;18.006;2023-06-05T00:42:40;101730.42;;;13.89;43.29
77086;BME280;66014;53.134;18.006;2023-06-05T00:45:06;101730.32;;;13.86;43.16
77086;BME280;66014;53.134;18.006;2023-06-05T00:47:33;101727.05;;;13.84;43.44
77086;BME280;66014;53.134;18.006;2023-06-05T00:50:00;101725.71;;;13.83;43.48
77086;BME280;66014;53.134;18.006;2023-06-05T00:52:29;101723.52;;;13.82;43.58
77086;BME280;66014;53.134;18.006;2023-06-05T00:54:55;101726.39;;;13.80;43.49
77086;BME280;66014;53.134;18.006;2023-06-05T00:57:21;101730.35;;;13.78;43.68
77086;BME280;66014;53.134;18.006;2023-06-05T00:59:50;101731.46;;;13.75;43.71
77086;BME280;66014;53.134;18.006;2023-06-05T01:02:16;101725.73;;;13.74;43.70
77086;BME280;66014;53.134;18.006;2023-06-05T01:04:42;101729.94;;;13.73;43.92
77086;BME280;66014;53.134;18.006;2023-06-05T01:07:15;101727.39;;;13.71;43.97
77086;BME280;66014;53.134;18.006;2023-06-05T01:09:42;101728.16;;;13.71;44.23
77086;BME280;66014;53.134;18.006;2023-06-05T01:12:20;101725.88;;;13.70;44.12
77086;BME280;66014;53.134;18.006;2023-06-05T01:14:53;101724.05;;;13.70;44.20
77086;BME280;66014;53.134;18.006;2023-06-05T01:17:26;101723.62;;;13.68;44.21
77086;BME280;66014;53.134;18.006;2023-06-05T01:19:55;101723.20;;;13.68;44.48
77086;BME280;66014;53.134;18.006;2023-06-05T01:22:27;101725.36;;;13.67;44.41
77086;BME280;66014;53.134;18.006;2023-06-05T01:24:53;101723.48;;;13.66;44.56
77086;BME280;66014;53.134;18.006;2023-06-05T01:27:31;101721.98;;;13.66;44.54
77086;BME280;66014;53.134;18.006;2023-06-05T01:30:11;101728.00;;;13.64;44.65
77086;BME280;66014;53.134;18.006;2023-06-05T01:32:50;101730.59;;;13.64;44.74
77086;BME280;66014;53.134;18.006;2023-06-05T01:35:20;101727.30;;;13.63;44.86
77086;BME280;66014;53.134;18.006;2023-06-05T01:37:48;101726.23;;;13.63;44.88
77086;BME280;66014;53.134;18.006;2023-06-05T01:40:17;101725.06;;;13.62;44.73
77086;BME280;66014;53.134;18.006;2023-06-05T01:42:46;101720.77;;;13.61;45.04
77086;BME280;66014;53.134;18.006;2023-06-05T01:45:14;101723.61;;;13.59;44.99
77086;BME280;66014;53.134;18.006;2023-06-05T01:47:41;101722.46;;;13.56;45.13
77086;BME280;66014;53.134;18.006;2023-06-05T01:50:09;101721.52;;;13.52;44.97
77086;BME280;66014;53.134;18.006;2023-06-05T01:52:39;101719.72;;;13.48;45.15
77086;BME280;66014;53.134;18.006;2023-06-05T01:55:06;101715.48;;;13.41;45.46
77086;BME280;66014;53.134;18.006;2023-06-05T01:57:32;101712.80;;;13.36;45.47
77086;BME280;66014;53.134;18.006;2023-06-05T02:00:00;101715.79;;;13.32;45.45
77086;BME280;66014;53.134;18.006;2023-06-05T02:02:32;101716.70;;;13.29;45.50
77086;BME280;66014;53.134;18.006;2023-06-05T02:04:58;101712.27;;;13.22;45.63
77086;BME280;66014;53.134;18.006;2023-06-05T02:07:25;101709.46;;;13.15;45.62
77086;BME280;66014;53.134;18.006;2023-06-05T02:09:50;101710.56;;;13.07;45.68
77086;BME280;66014;53.134;18.006;2023-06-05T02:12:16;101711.66;;;12.97;45.81
77086;BME280;66014;53.134;18.006;2023-06-05T02:14:42;101714.47;;;12.86;46.13
77086;BME280;66014;53.134;18.006;2023-06-05T02:17:11;101712.11;;;12.75;46.22
77086;BME280;66014;53.134;18.006;2023-06-05T02:19:39;101713.81;;;12.65;46.43
77086;BME280;66014;53.134;18.006;2023-06-05T02:22:06;101711.96;;;12.56;46.50
77086;BME280;66014;53.134;18.006;2023-06-05T02:24:33;101710.64;;;12.48;46.67
77086;BME280;66014;53.134;18.006;2023-06-05T02:27:00;101712.60;;;12.42;47.01
77086;BME280;66014;53.134;18.006;2023-06-05T02:29:26;101715.31;;;12.35;47.09
77086;BME280;66014;53.134;18.006;2023-06-05T02:31:51;101713.86;;;12.30;47.26
77086;BME280;66014;53.134;18.006;2023-06-05T02:34:17;101714.73;;;12.25;47.48
77086;BME280;66014;53.134;18.006;2023-06-05T02:36:43;101711.23;;;12.21;47.33
77086;BME280;66014;53.134;18.006;2023-06-05T02:39:11;101710.73;;;12.19;47.62
77086;BME280;66014;53.134;18.006;2023-06-05T02:41:38;101712.23;;;12.19;47.59
77086;BME280;66014;53.134;18.006;2023-06-05T02:44:04;101710.34;;;12.16;47.89
77086;BME280;66014;53.134;18.006;2023-06-05T02:46:29;101711.91;;;12.13;47.98
77086;BME280;66014;53.134;18.006;2023-06-05T02:48:55;101716.03;;;12.10;48.14
77086;BME280;66014;53.134;18.006;2023-06-05T02:51:21;101720.12;;;12.05;48.08
77086;BME280;66014;53.134;18.006;2023-06-05T02:53:47;101723.58;;;12.03;48.19
77086;BME280;66014;53.134;18.006;2023-06-05T02:56:13;101724.95;;;12.00;48.12
77086;BME280;66014;53.134;18.006;2023-06-05T02:58:40;101726.02;;;11.96;48.10
77086;BME280;66014;53.134;18.006;2023-06-05T03:01:09;101726.27;;;11.94;48.36
77086;BME280;66014;53.134;18.006;2023-06-05T03:03:38;101725.29;;;11.90;48.45
77086;BME280;66014;53.134;18.006;2023-06-05T03:06:04;101726.56;;;11.88;48.57
77086;BME280;66014;53.134;18.006;2023-06-05T03:08:31;101728.57;;;11.86;48.91
77086;BME280;66014;53.134;18.006;2023-06-05T03:11:02;101731.33;;;11.83;48.91
77086;BME280;66014;53.134;18.006;2023-06-05T03:13:28;101732.98;;;11.81;48.97
77086;BME280;66014;53.134;18.006;2023-06-05T03:15:58;101731.33;;;11.80;49.19
77086;BME280;66014;53.134;18.006;2023-06-05T03:18:27;101729.57;;;11.80;49.00
77086;BME280;66014;53.134;18.006;2023-06-05T03:20:54;101727.70;;;11.79;49.25
77086;BME280;66014;53.134;18.006;2023-06-05T03:23:23;101729.89;;;11.78;49.29
77086;BME280;66014;53.134;18.006;2023-06-05T03:25:50;101730.75;;;11.78;49.41
77086;BME280;66014;53.134;18.006;2023-06-05T03:28:17;101735.28;;;11.79;49.47
77086;BME280;66014;53.134;18.006;2023-06-05T03:30:45;101736.64;;;11.80;49.46
77086;BME280;66014;53.134;18.006;2023-06-05T03:33:11;101732.92;;;11.83;49.44
77086;BME280;66014;53.134;18.006;2023-06-05T03:35:37;101731.34;;;11.88;49.44
77086;BME280;66014;53.134;18.006;2023-06-05T03:38:03;101734.23;;;11.92;49.63
77086;BME280;66014;53.134;18.006;2023-06-05T03:40:29;101736.69;;;11.96;49.48
77086;BME280;66014;53.134;18.006;2023-06-05T03:42:55;101735.30;;;11.99;49.60
77086;BME280;66014;53.134;18.006;2023-06-05T03:45:20;101740.86;;;12.04;49.69
77086;BME280;66014;53.134;18.006;2023-06-05T03:47:49;101737.45;;;12.09;49.83
77086;BME280;66014;53.134;18.006;2023-06-05T03:50:15;101735.88;;;12.16;49.77
77086;BME280;66014;53.134;18.006;2023-06-05T03:52:41;101732.95;;;12.21;49.79
77086;BME280;66014;53.134;18.006;2023-06-05T03:55:08;101735.48;;;12.28;49.76
77086;BME280;66014;53.134;18.006;2023-06-05T03:57:38;101734.46;;;12.32;49.61
77086;BME280;66014;53.134;18.006;2023-06-05T04:00:07;101732.74;;;12.38;49.80
77086;BME280;66014;53.134;18.006;2023-06-05T04:02:37;101732.17;;;12.46;49.76
77086;BME280;66014;53.134;18.006;2023-06-05T04:05:03;101734.20;;;12.56;49.79
77086;BME280;66014;53.134;18.006;2023-06-05T04:07:29;101731.34;;;12.64;49.83
77086;BME280;66014;53.134;18.006;2023-06-05T04:09:56;101730.70;;;12.70;49.61
77086;BME280;66014;53.134;18.006;2023-06-05T04:12:22;101731.33;;;12.76;49.67
77086;BME280;66014;53.134;18.006;2023-06-05T04:14:48;101733.87;;;12.80;49.46
77086;BME280;66014;53.134;18.006;2023-06-05T04:17:14;101728.54;;;12.85;49.67
77086;BME280;66014;53.134;18.006;2023-06-05T04:19:40;101729.47;;;12.89;49.71
77086;BME280;66014;53.134;18.006;2023-06-05T04:22:06;101730.77;;;12.93;49.38
77086;BME280;66014;53.134;18.006;2023-06-05T04:24:32;101727.17;;;12.99;49.53
77086;BME280;66014;53.134;18.006;2023-06-05T04:26:58;101732.89;;;13.05;49.61
77086;BME280;66014;53.134;18.006;2023-06-05T04:29:26;101728.64;;;13.11;49.48
77086;BME280;66014;53.134;18.006;2023-06-05T04:31:52;101728.91;;;13.17;49.43
77086;BME280;66014;53.134;18.006;2023-06-05T04:34:18;101727.95;;;13.22;49.37
77086;BME280;66014;53.134;18.006;2023-06-05T04:36:45;101726.16;;;13.24;49.24
77086;BME280;66014;53.134;18.006;2023-06-05T04:39:15;101728.97;;;13.27;49.33
77086;BME280;66014;53.134;18.006;2023-06-05T04:41:42;101729.63;;;13.31;49.19
77086;BME280;66014;53.134;18.006;2023-06-05T04:44:12;101729.89;;;13.34;49.26
77086;BME280;66014;53.134;18.006;2023-06-05T04:46:39;101729.39;;;13.38;49.26
77086;BME280;66014;53.134;18.006;2023-06-05T04:49:06;101727.18;;;13.42;49.18
77086;BME280;66014;53.134;18.006;2023-06-05T04:51:32;101725.89;;;13.47;49.19
77086;BME280;66014;53.134;18.006;2023-06-05T04:53:58;101723.95;;;13.51;49.26
77086;BME280;66014;53.134;18.006;2023-06-05T04:56:25;101726.64;;;13.59;49.27
77086;BME280;66014;53.134;18.006;2023-06-05T04:58:51;101725.77;;;13.65;49.08
77086;BME280;66014;53.134;18.006;2023-06-05T05:01:19;101724.69;;;13.70;48.94
77086;BME280;66014;53.134;18.006;2023-06-05T05:03:45;101722.64;;;13.76;49.07
77086;BME280;66014;53.134;18.006;2023-06-05T05:06:17;101726.11;;;13.84;49.07
77086;BME280;66014;53.134;18.006;2023-06-05T05:08:43;101723.58;;;13.92;49.04
77086;BME280;66014;53.134;18.006;2023-06-05T05:11:12;101726.41;;;14.02;48.93
77086;BME280;66014;53.134;18.006;2023-06-05T05:13:38;101724.10;;;14.11;48.76
77086;BME280;66014;53.134;18.006;2023-06-05T05:16:04;101725.79;;;14.18;48.60
77086;BME280;66014;53.134;18.006;2023-06-05T05:18:30;101724.39;;;14.24;48.71
77086;BME280;66014;53.134;18.006;2023-06-05T05:20:56;101723.31;;;14.32;48.48
77086;BME280;66014;53.134;18.006;2023-06-05T05:23:22;101724.31;;;14.38;48.45
77086;BME280;66014;53.134;18.006;2023-06-05T05:25:48;101725.85;;;14.45;48.21
77086;BME280;66014;53.134;18.006;2023-06-05T05:28:14;101723.48;;;14.47;48.20
77086;BME280;66014;53.134;18.006;2023-06-05T05:30:39;101720.17;;;14.51;48.08
77086;BME280;66014;53.134;18.006;2023-06-05T05:33:06;101721.61;;;14.57;48.14
77086;BME280;66014;53.134;18.006;2023-06-05T05:35:32;101719.66;;;14.60;48.09
77086;BME280;66014;53.134;18.006;2023-06-05T05:37:58;101722.13;;;14.66;48.01
77086;BME280;66014;53.134;18.006;2023-06-05T05:40:25;101718.95;;;14.72;47.93
77086;BME280;66014;53.134;18.006;2023-06-05T05:42:50;101722.89;;;14.78;47.80
77086;BME280;66014;53.134;18.006;2023-06-05T05:45:16;101724.78;;;14.86;47.70
77086;BME280;66014;53.134;18.006;2023-06-05T05:47:42;101728.67;;;14.92;47.60
77086;BME280;66014;53.134;18.006;2023-06-05T05:50:09;101727.65;;;14.98;47.61
77086;BME280;66014;53.134;18.006;2023-06-05T05:52:35;101727.36;;;15.06;47.62
77086;BME280;66014;53.134;18.006;2023-06-05T05:55:01;101729.21;;;15.16;47.27
77086;BME280;66014;53.134;18.006;2023-06-05T05:57:29;101729.33;;;15.31;46.98
77086;BME280;66014;53.134;18.006;2023-06-05T05:59:56;101734.19;;;15.55;46.37
77086;BME280;66014;53.134;18.006;2023-06-05T06:02:21;101735.46;;;15.88;46.03
77086;BME280;66014;53.134;18.006;2023-06-05T06:04:47;101732.83;;;16.34;45.52
77086;BME280;66014;53.134;18.006;2023-06-05T06:07:14;101726.81;;;16.90;44.95
77086;BME280;66014;53.134;18.006;2023-06-05T06:09:40;101730.40;;;17.58;43.97
77086;BME280;66014;53.134;18.006;2023-06-05T06:12:06;101732.01;;;18.74;42.81
77086;BME280;66014;53.134;18.006;2023-06-05T06:14:33;101733.98;;;20.15;40.99
77086;BME280;66014;53.134;18.006;2023-06-05T06:17:00;101729.36;;;21.46;39.47
77086;BME280;66014;53.134;18.006;2023-06-05T06:19:27;101727.25;;;22.69;37.98
77086;BME280;66014;53.134;18.006;2023-06-05T06:21:55;101730.83;;;23.83;36.19
77086;BME280;66014;53.134;18.006;2023-06-05T06:24:21;101734.27;;;24.83;35.04
77086;BME280;66014;53.134;18.006;2023-06-05T06:26:48;101732.55;;;25.80;33.85
77086;BME280;66014;53.134;18.006;2023-06-05T06:29:18;101736.17;;;26.68;32.12
77086;BME280;66014;53.134;18.006;2023-06-05T06:31:44;101737.45;;;27.54;31.07
77086;BME280;66014;53.134;18.006;2023-06-05T06:34:10;101742.20;;;28.31;29.89
77086;BME280;66014;53.134;18.006;2023-06-05T06:36:39;101741.66;;;29.08;28.74
77086;BME280;66014;53.134;18.006;2023-06-05T06:39:07;101738.42;;;29.80;27.37
77086;BME280;66014;53.134;18.006;2023-06-05T06:41:36;101739.84;;;30.54;26.43
77086;BME280;66014;53.134;18.006;2023-06-05T06:44:03;101743.80;;;31.25;25.18
77086;BME280;66014;53.134;18.006;2023-06-05T06:46:30;101743.38;;;31.90;24.20
77086;BME280;66014;53.134;18.006;2023-06-05T06:48:57;101741.78;;;32.38;23.15
77086;BME280;66014;53.134;18.006;2023-06-05T06:51:22;101740.91;;;32.78;22.45
77086;BME280;66014;53.134;18.006;2023-06-05T06:53:48;101743.90;;;33.13;21.51
77086;BME280;66014;53.134;18.006;2023-06-05T06:56:15;101741.86;;;33.24;20.90
77086;BME280;66014;53.134;18.006;2023-06-05T06:58:44;101739.23;;;33.50;20.32
77086;BME280;66014;53.134;18.006;2023-06-05T07:01:14;101737.29;;;33.93;20.12
77086;BME280;66014;53.134;18.006;2023-06-05T07:03:40;101738.52;;;34.30;19.65
77086;BME280;66014;53.134;18.006;2023-06-05T07:06:09;101734.36;;;34.76;18.96
77086;BME280;66014;53.134;18.006;2023-06-05T07:08:35;101736.61;;;35.32;18.45
77086;BME280;66014;53.134;18.006;2023-06-05T07:11:01;101741.16;;;35.99;17.80
77086;BME280;66014;53.134;18.006;2023-06-05T07:13:27;101737.46;;;36.56;17.54
77086;BME280;66014;53.134;18.006;2023-06-05T07:15:52;101736.95;;;37.17;16.99
77086;BME280;66014;53.134;18.006;2023-06-05T07:18:18;101735.00;;;37.77;16.41
77086;BME280;66014;53.134;18.006;2023-06-05T07:20:47;101734.14;;;38.29;15.81
77086;BME280;66014;53.134;18.006;2023-06-05T07:23:14;101732.52;;;38.76;15.40
77086;BME280;66014;53.134;18.006;2023-06-05T07:25:40;101734.38;;;39.20;15.19
77086;BME280;66014;53.134;18.006;2023-06-05T07:28:09;101733.27;;;39.68;14.73
77086;BME280;66014;53.134;18.006;2023-06-05T07:30:39;101731.95;;;40.20;14.24
77086;BME280;66014;53.134;18.006;2023-06-05T07:33:09;101731.59;;;40.69;13.93
77086;BME280;66014;53.134;18.006;2023-06-05T07:35:35;101730.73;;;41.10;13.05
77086;BME280;66014;53.134;18.006;2023-06-05T07:38:01;101730.11;;;41.33;12.40
77086;BME280;66014;53.134;18.006;2023-06-05T07:40:27;101730.61;;;41.19;12.35
77086;BME280;66014;53.134;18.006;2023-06-05T07:42:52;101727.40;;;41.27;11.70
77086;BME280;66014;53.134;18.006;2023-06-05T07:45:18;101728.69;;;41.16;11.42
77086;BME280;66014;53.134;18.006;2023-06-05T07:47:44;101727.56;;;41.27;11.31
77086;BME280;66014;53.134;18.006;2023-06-05T07:50:10;101724.70;;;41.50;11.23
77086;BME280;66014;53.134;18.006;2023-06-05T07:52:36;101723.41;;;41.82;11.12
77086;BME280;66014;53.134;18.006;2023-06-05T07:55:03;101721.17;;;42.23;10.86
77086;BME280;66014;53.134;18.006;2023-06-05T07:57:30;101721.05;;;42.66;10.90
77086;BME280;66014;53.134;18.006;2023-06-05T07:59:56;101718.35;;;43.27;10.68
77086;BME280;66014;53.134;18.006;2023-06-05T08:02:22;101719.15;;;43.92;10.02
77086;BME280;66014;53.134;18.006;2023-06-05T08:04:49;101719.83;;;44.56;9.54
77086;BME280;66014;53.134;18.006;2023-06-05T08:07:14;101719.66;;;45.10;9.23
77086;BME280;66014;53.134;18.006;2023-06-05T08:09:41;101721.63;;;45.49;8.75
77086;BME280;66014;53.134;18.006;2023-06-05T08:12:07;101719.61;;;45.90;8.58
77086;BME280;66014;53.134;18.006;2023-06-05T08:14:33;101721.75;;;46.40;8.42
77086;BME280;66014;53.134;18.006;2023-06-05T08:17:00;101716.95;;;46.90;8.08
77086;BME280;66014;53.134;18.006;2023-06-05T08:19:26;101719.13;;;47.40;7.69
77086;BME280;66014;53.134;18.006;2023-06-05T08:21:52;101718.10;;;47.72;7.43
77086;BME280;66014;53.134;18.006;2023-06-05T08:24:22;101719.95;;;47.55;7.06
77086;BME280;66014;53.134;18.006;2023-06-05T08:26:48;101722.95;;;47.20;7.36
77086;BME280;66014;53.134;18.006;2023-06-05T08:29:14;101719.54;;;47.45;7.58
77086;BME280;66014;53.134;18.006;2023-06-05T08:31:40;101719.58;;;47.80;7.29
77086;BME280;66014;53.134;18.006;2023-06-05T08:34:06;101722.80;;;47.90;6.96
77086;BME280;66014;53.134;18.006;2023-06-05T08:36:32;101721.89;;;47.60;6.85
77086;BME280;66014;53.134;18.006;2023-06-05T08:39:05;101716.80;;;47.51;6.88
77086;BME280;66014;53.134;18.006;2023-06-05T08:41:31;101719.89;;;47.60;6.95
77086;BME280;66014;53.134;18.006;2023-06-05T08:43:58;101714.61;;;47.44;6.70
77086;BME280;66014;53.134;18.006;2023-06-05T08:46:28;101716.56;;;47.20;6.71
77086;BME280;66014;53.134;18.006;2023-06-05T08:48:56;101716.41;;;47.22;6.81
77086;BME280;66014;53.134;18.006;2023-06-05T08:51:23;101714.34;;;47.28;6.63
77086;BME280;66014;53.134;18.006;2023-06-05T08:56:17;101703.82;;;47.46;6.63
77086;BME280;66014;53.134;18.006;2023-06-05T08:58:45;101701.01;;;47.67;6.53
77086;BME280;66014;53.134;18.006;2023-06-05T09:01:12;101704.56;;;47.74;6.50
77086;BME280;66014;53.134;18.006;2023-06-05T09:03:37;101696.45;;;47.27;6.38
77086;BME280;66014;53.134;18.006;2023-06-05T09:06:03;101699.48;;;45.76;6.56
77086;BME280;66014;53.134;18.006;2023-06-05T09:08:31;101695.86;;;44.46;7.36
77086;BME280;66014;53.134;18.006;2023-06-05T09:13:46;101696.20;;;44.48;7.56
77086;BME280;66014;53.134;18.006;2023-06-05T09:16:12;101697.14;;;44.52;7.43
77086;BME280;66014;53.134;18.006;2023-06-05T09:18:51;101696.85;;;44.49;7.55
77086;BME280;66014;53.134;18.006;2023-06-05T09:21:18;101700.38;;;44.64;7.30
77086;BME280;66014;53.134;18.006;2023-06-05T09:23:44;101692.95;;;44.87;7.41
77086;BME280;66014;53.134;18.006;2023-06-05T09:26:13;101694.36;;;45.74;7.11
77086;BME280;66014;53.134;18.006;2023-06-05T09:28:53;101685.29;;;46.72;6.81
77086;BME280;66014;53.134;18.006;2023-06-05T09:31:41;101687.86;;;47.73;6.64
77086;BME280;66014;53.134;18.006;2023-06-05T09:34:24;101690.67;;;48.45;6.27
77086;BME280;66014;53.134;18.006;2023-06-05T09:36:57;101682.02;;;49.06;5.96
77086;BME280;66014;53.134;18.006;2023-06-05T09:39:38;101683.16;;;49.42;5.84
77086;BME280;66014;53.134;18.006;2023-06-05T09:42:33;101686.03;;;49.35;5.41
77086;BME280;66014;53.134;18.006;2023-06-05T09:45:00;101682.76;;;49.16;5.62
77086;BME280;66014;53.134;18.006;2023-06-05T09:47:26;101677.43;;;49.61;5.54
77086;BME280;66014;53.134;18.006;2023-06-05T09:49:52;101679.41;;;49.93;5.35
77086;BME280;66014;53.134;18.006;2023-06-05T09:52:18;101675.68;;;50.01;5.38
77086;BME280;66014;53.134;18.006;2023-06-05T09:54:46;101673.37;;;49.88;5.11
77086;BME280;66014;53.134;18.006;2023-06-05T09:57:14;101665.83;;;48.20;5.23
77086;BME280;66014;53.134;18.006;2023-06-05T09:59:51;101660.48;;;46.58;6.06
77086;BME280;66014;53.134;18.006;2023-06-05T10:02:21;101660.36;;;45.31;6.41
77086;BME280;66014;53.134;18.006;2023-06-05T10:04:58;101658.18;;;44.44;6.95
77086;BME280;66014;53.134;18.006;2023-06-05T10:07:25;101658.91;;;43.85;7.36
77086;BME280;66014;53.134;18.006;2023-06-05T10:09:52;101658.02;;;44.16;7.40
77086;BME280;66014;53.134;18.006;2023-06-05T10:12:20;101653.40;;;44.64;7.38
77086;BME280;66014;53.134;18.006;2023-06-05T10:14:50;101650.52;;;45.44;7.19
77086;BME280;66014;53.134;18.006;2023-06-05T10:17:23;101645.48;;;45.94;7.07
77086;BME280;66014;53.134;18.006;2023-06-05T10:19:51;101638.51;;;44.85;7.15
77086;BME280;66014;53.134;18.006;2023-06-05T10:22:17;101636.27;;;44.15;7.45
77086;BME280;66014;53.134;18.006;2023-06-05T10:24:51;101639.23;;;44.37;7.18
77086;BME280;66014;53.134;18.006;2023-06-05T10:27:30;101634.65;;;44.18;7.49
77086;BME280;66014;53.134;18.006;2023-06-05T10:32:44;101632.42;;;44.20;7.37
77086;BME280;66014;53.134;18.006;2023-06-05T10:38:18;101631.32;;;44.97;7.25
77086;BME280;66014;53.134;18.006;2023-06-05T10:40:59;101632.22;;;45.22;7.19
77086;BME280;66014;53.134;18.006;2023-06-05T10:43:32;101627.95;;;44.55;7.59
77086;BME280;66014;53.134;18.006;2023-06-05T10:46:27;101620.40;;;42.40;8.04
77086;BME280;66014;53.134;18.006;2023-06-05T10:49:15;101621.02;;;40.35;8.74
77086;BME280;66014;53.134;18.006;2023-06-05T10:52:00;101615.19;;;41.24;8.82
77086;BME280;66014;53.134;18.006;2023-06-05T10:54:53;101607.26;;;42.05;8.34
77086;BME280;66014;53.134;18.006;2023-06-05T11:04:04;101602.84;;;44.66;7.77
77086;BME280;66014;53.134;18.006;2023-06-05T11:06:37;101597.95;;;42.85;8.51
77086;BME280;66014;53.134;18.006;2023-06-05T11:09:16;101597.00;;;41.97;8.55
77086;BME280;66014;53.134;18.006;2023-06-05T11:12:10;101593.11;;;40.43;9.06
77086;BME280;66014;53.134;18.006;2023-06-05T11:14:47;101592.58;;;39.87;9.45
77086;BME280;66014;53.134;18.006;2023-06-05T11:17:32;101592.39;;;39.40;9.74
77086;BME280;66014;53.134;18.006;2023-06-05T11:20:04;101589.27;;;37.61;10.56
77086;BME280;66014;53.134;18.006;2023-06-05T11:22:31;101588.91;;;36.65;11.05
77086;BME280;66014;53.134;18.006;2023-06-05T11:25:24;101588.83;;;35.60;11.58
77086;BME280;66014;53.134;18.006;2023-06-05T11:27:57;101586.73;;;34.20;12.51
77086;BME280;66014;53.134;18.006;2023-06-05T11:30:51;101587.71;;;33.22;13.17
77086;BME280;66014;53.134;18.006;2023-06-05T11:33:28;101586.67;;;32.81;13.53
77086;BME280;66014;53.134;18.006;2023-06-05T11:36:00;101582.58;;;32.72;14.22
77086;BME280;66014;53.134;18.006;2023-06-05T11:38:26;101583.72;;;34.05;13.42
77086;BME280;66014;53.134;18.006;2023-06-05T11:40:53;101587.17;;;36.28;12.41
77086;BME280;66014;53.134;18.006;2023-06-05T11:43:20;101586.81;;;36.66;12.07
77086;BME280;66014;53.134;18.006;2023-06-05T11:45:51;101586.53;;;36.11;12.03
77086;BME280;66014;53.134;18.006;2023-06-05T11:48:17;101583.36;;;37.11;11.78
77086;BME280;66014;53.134;18.006;2023-06-05T11:50:58;101575.81;;;37.46;11.49
77086;BME280;66014;53.134;18.006;2023-06-05T11:53:25;101575.16;;;38.36;11.12
77086;BME280;66014;53.134;18.006;2023-06-05T11:55:52;101575.42;;;39.67;10.39
77086;BME280;66014;53.134;18.006;2023-06-05T11:58:27;101579.63;;;40.67;9.91
77086;BME280;66014;53.134;18.006;2023-06-05T12:01:29;101573.46;;;41.12;9.07
77086;BME280;66014;53.134;18.006;2023-06-05T12:04:04;101571.41;;;41.83;8.91
77086;BME280;66014;53.134;18.006;2023-06-05T12:06:31;101572.51;;;42.50;8.99
77086;BME280;66014;53.134;18.006;2023-06-05T12:09:07;101567.66;;;43.26;8.56
77086;BME280;66014;53.134;18.006;2023-06-05T12:11:35;101567.04;;;43.46;8.15
77086;BME280;66014;53.134;18.006;2023-06-05T12:14:01;101567.61;;;43.32;8.20
77086;BME280;66014;53.134;18.006;2023-06-05T12:16:37;101564.52;;;43.29;8.10
77086;BME280;66014;53.134;18.006;2023-06-05T12:19:17;101562.12;;;43.26;8.10
77086;BME280;66014;53.134;18.006;2023-06-05T12:21:44;101559.20;;;43.01;7.94
77086;BME280;66014;53.134;18.006;2023-06-05T12:24:11;101555.06;;;42.77;8.24
77086;BME280;66014;53.134;18.006;2023-06-05T12:26:50;101549.02;;;42.92;8.32
77086;BME280;66014;53.134;18.006;2023-06-05T12:29:21;101545.94;;;42.85;8.16
77086;BME280;66014;53.134;18.006;2023-06-05T12:31:48;101538.78;;;42.21;8.54
77086;BME280;66014;53.134;18.006;2023-06-05T12:34:14;101537.51;;;41.33;8.60
77086;BME280;66014;53.134;18.006;2023-06-05T12:36:45;101536.83;;;40.23;9.34
77086;BME280;66014;53.134;18.006;2023-06-05T12:39:13;101533.11;;;39.09;9.95
77086;BME280;66014;53.134;18.006;2023-06-05T12:41:40;101527.89;;;38.27;10.37
77086;BME280;66014;53.134;18.006;2023-06-05T12:44:06;101523.75;;;37.33;10.88
77086;BME280;66014;53.134;18.006;2023-06-05T12:46:36;101528.41;;;36.20;11.56
77086;BME280;66014;53.134;18.006;2023-06-05T12:49:03;101527.33;;;35.45;12.30
77086;BME280;66014;53.134;18.006;2023-06-05T12:51:31;101525.06;;;34.66;12.64
77086;BME280;66014;53.134;18.006;2023-06-05T12:53:57;101519.52;;;33.69;13.32
77086;BME280;66014;53.134;18.006;2023-06-05T12:56:24;101516.94;;;32.77;14.02
77086;BME280;66014;53.134;18.006;2023-06-05T12:58:54;101520.33;;;31.87;14.56
77086;BME280;66014;53.134;18.006;2023-06-05T13:01:22;101517.55;;;31.12;15.06
77086;BME280;66014;53.134;18.006;2023-06-05T13:03:48;101513.09;;;30.43;15.47
77086;BME280;66014;53.134;18.006;2023-06-05T13:06:14;101511.64;;;29.89;15.89
77086;BME280;66014;53.134;18.006;2023-06-05T13:08:42;101507.95;;;29.46;16.38